Aransas Pass, TX

7:58 AM CST on February 23, 2017 (GMT -0600)
AB5KT - Island RV Resort | | Change Station
Active Advisory: Special Statement

Elev 10 ft 27.83 °N, 97.07 °W | Updated 9 seconds ago

Clear
Clear
70.3 °F
Feels Like 70.3 °F
N
2.9
Wind Variable Wind from SSW
Gusts 9.0 mph

Today
High -- | Low -- °F
--% Chance of Precip.
Yesterday
High -- | Low -- °F
Precip. -- in
Pressure 29.74 in
Visibility 10.0 miles
Clouds Clear
Dew Point 67 °F
Humidity 90%
Rainfall 0.00 in
Snow Depth Not available.
6:58 AM 6:25 PM
Waning Crescent, 10% visible
METAR KRAS 231335Z AUTO 16008KT 10SM CLR 20/19 A2974 RMK AO2 T02000192
Pressure 29.74 in
Visibility 10.0 miles
Clouds Clear
Dew Point 67 °F
Humidity 90%
Rainfall 0.00 in
Snow Depth Not available.
6:58 AM 6:25 PM
Waning Crescent, 10% visible
METAR KRAS 231335Z AUTO 16008KT 10SM CLR 20/19 A2974 RMK AO2 T02000192

Get Your Daily Forecast Email!

Thanks for signing up!

Be on the lookout for a verification email in your inbox.

You'll start receiving the daily forecast at 8 AM.

×

10-Day Weather Forecast

Almanac

Astronomy

Feb. 23, 2017 Rise Set
Actual Time
Civil Twilight
Nautical Twilight
Astronomical Twilight
Moon
Length of Visible Light
Length of Day
Tomorrow will be .
, % of the Moon is Illuminated

Today's Extremes

State Highs State Lows

Community

WunderPhotos

Upload Photos

1,962,540 photos uploaded!

WunderBlog® & News

Nearby

Air Quality

  Air Quality AQ Index Pollutant
Not available.

Snow Depth

Station Depth Elevation

Earthquake Activity

City Distance Mag. Time & Date
Minimum magnitude displayed is 2.5.

Coastal Water Temperatures

Place Temperature

Stations

Nearby Weather Stations

Station Location Temp. Windchill Dew Point Humidity Wind Precip. Elev Updated Type
                   

Watches & Warnings

Special Statement
Issued: 5:21 AM CST Feb. 23, 2017 – National Weather Service

... Patchy dense fog this morning across south Texas...

Patchy dense fog will be possible across the coastal Bend into the
Victoria Crossroads early this morning. Visibility will be reduced
to less than a mile... with visibility falling to one quarter of a
mile or less at times. Visibilities will change greatly within a
short time period and distance so please use extreme caution when
traveling this morning.



521 am CST Thu Feb 23 2017

... Patchy dense fog this morning across south Texas...

Patchy dense fog will be possible across the coastal Bend into the
Victoria Crossroads early this morning. Visibility will be reduced
to less than a mile... with visibility falling to one quarter of a
mile or less at times. Visibilities will change greatly within a
short time period and distance so please use extreme caution when
traveling this morning.